sensor_id;sensor_type;location;lat;lon;timestamp;P1;durP1;ratioP1;P2;durP2;ratioP2
51995;SDS011;38010;53.264;6.592;2022-12-11T00:00:10;2.65;;;1.90;;
51995;SDS011;38010;53.264;6.592;2022-12-11T00:02:36;2.92;;;2.17;;
51995;SDS011;38010;53.264;6.592;2022-12-11T00:05:02;2.95;;;2.10;;
51995;SDS011;38010;53.264;6.592;2022-12-11T00:07:28;2.50;;;1.80;;
51995;SDS011;38010;53.264;6.592;2022-12-11T00:09:54;2.80;;;2.20;;
51995;SDS011;38010;53.264;6.592;2022-12-11T00:12:19;3.47;;;2.30;;
51995;SDS011;38010;53.264;6.592;2022-12-11T00:14:45;2.50;;;1.90;;
51995;SDS011;38010;53.264;6.592;2022-12-11T00:17:11;3.20;;;2.25;;
51995;SDS011;38010;53.264;6.592;2022-12-11T00:19:36;2.47;;;1.90;;
51995;SDS011;38010;53.264;6.592;2022-12-11T00:22:02;2.97;;;2.13;;
51995;SDS011;38010;53.264;6.592;2022-12-11T00:24:28;2.90;;;2.25;;
51995;SDS011;38010;53.264;6.592;2022-12-11T00:26:53;2.63;;;1.90;;
51995;SDS011;38010;53.264;6.592;2022-12-11T00:29:19;2.70;;;2.15;;
51995;SDS011;38010;53.264;6.592;2022-12-11T00:31:45;2.58;;;2.17;;
51995;SDS011;38010;53.264;6.592;2022-12-11T00:34:10;2.83;;;2.10;;
51995;SDS011;38010;53.264;6.592;2022-12-11T00:36:36;3.03;;;1.98;;
51995;SDS011;38010;53.264;6.592;2022-12-11T00:39:03;2.80;;;1.95;;
51995;SDS011;38010;53.264;6.592;2022-12-11T00:41:29;2.05;;;1.65;;
51995;SDS011;38010;53.264;6.592;2022-12-11T00:43:55;2.53;;;1.85;;
51995;SDS011;38010;53.264;6.592;2022-12-11T00:46:21;3.10;;;2.08;;
51995;SDS011;38010;53.264;6.592;2022-12-11T00:48:47;2.97;;;2.10;;
51995;SDS011;38010;53.264;6.592;2022-12-11T00:51:14;2.45;;;1.98;;
51995;SDS011;38010;53.264;6.592;2022-12-11T00:53:40;2.92;;;2.33;;
51995;SDS011;38010;53.264;6.592;2022-12-11T00:56:14;3.30;;;2.20;;
51995;SDS011;38010;53.264;6.592;2022-12-11T00:58:41;2.83;;;2.05;;
51995;SDS011;38010;53.264;6.592;2022-12-11T01:01:40;2.28;;;1.90;;
51995;SDS011;38010;53.264;6.592;2022-12-11T01:03:59;3.45;;;2.10;;
51995;SDS011;38010;53.264;6.592;2022-12-11T01:06:26;2.50;;;1.98;;
51995;SDS011;38010;53.264;6.592;2022-12-11T01:08:52;2.80;;;2.03;;
51995;SDS011;38010;53.264;6.592;2022-12-11T01:11:37;2.75;;;2.10;;
51995;SDS011;38010;53.264;6.592;2022-12-11T01:14:04;2.35;;;2.08;;
51995;SDS011;38010;53.264;6.592;2022-12-11T01:16:30;2.95;;;2.13;;
51995;SDS011;38010;53.264;6.592;2022-12-11T01:18:56;2.90;;;2.15;;
51995;SDS011;38010;53.264;6.592;2022-12-11T01:21:22;3.25;;;2.05;;
51995;SDS011;38010;53.264;6.592;2022-12-11T01:23:51;2.28;;;1.98;;
51995;SDS011;38010;53.264;6.592;2022-12-11T01:26:17;3.10;;;2.22;;
51995;SDS011;38010;53.264;6.592;2022-12-11T01:28:43;2.97;;;2.20;;
51995;SDS011;38010;53.264;6.592;2022-12-11T01:31:09;2.78;;;2.20;;
51995;SDS011;38010;53.264;6.592;2022-12-11T01:33:37;2.78;;;2.10;;
51995;SDS011;38010;53.264;6.592;2022-12-11T01:36:22;3.15;;;2.13;;
51995;SDS011;38010;53.264;6.592;2022-12-11T01:38:48;2.63;;;1.88;;
51995;SDS011;38010;53.264;6.592;2022-12-11T01:41:14;3.60;;;2.00;;
51995;SDS011;38010;53.264;6.592;2022-12-11T01:46:31;2.38;;;2.05;;
51995;SDS011;38010;53.264;6.592;2022-12-11T01:48:59;2.85;;;1.98;;
51995;SDS011;38010;53.264;6.592;2022-12-11T01:51:27;3.17;;;2.08;;
51995;SDS011;38010;53.264;6.592;2022-12-11T01:54:00;2.80;;;2.05;;
51995;SDS011;38010;53.264;6.592;2022-12-11T01:56:30;3.28;;;2.08;;
51995;SDS011;38010;53.264;6.592;2022-12-11T01:58:58;3.03;;;2.40;;
51995;SDS011;38010;53.264;6.592;2022-12-11T02:04:05;3.10;;;2.00;;
51995;SDS011;38010;53.264;6.592;2022-12-11T02:06:39;2.75;;;1.98;;
51995;SDS011;38010;53.264;6.592;2022-12-11T02:09:26;4.25;;;2.30;;
51995;SDS011;38010;53.264;6.592;2022-12-11T02:12:14;2.22;;;1.95;;
51995;SDS011;38010;53.264;6.592;2022-12-11T02:14:58;2.78;;;2.00;;
51995;SDS011;38010;53.264;6.592;2022-12-11T02:20:17;2.92;;;2.10;;
51995;SDS011;38010;53.264;6.592;2022-12-11T02:23:05;2.08;;;1.60;;
51995;SDS011;38010;53.264;6.592;2022-12-11T02:25:58;2.42;;;1.83;;
51995;SDS011;38010;53.264;6.592;2022-12-11T02:30:56;3.83;;;2.13;;
51995;SDS011;38010;53.264;6.592;2022-12-11T02:33:35;3.13;;;2.33;;
51995;SDS011;38010;53.264;6.592;2022-12-11T02:36:23;3.15;;;2.20;;
51995;SDS011;38010;53.264;6.592;2022-12-11T02:38:52;3.03;;;2.05;;
51995;SDS011;38010;53.264;6.592;2022-12-11T02:41:21;3.47;;;2.00;;
51995;SDS011;38010;53.264;6.592;2022-12-11T02:43:48;2.72;;;2.40;;
51995;SDS011;38010;53.264;6.592;2022-12-11T02:46:15;3.22;;;2.20;;
51995;SDS011;38010;53.264;6.592;2022-12-11T02:48:43;3.55;;;2.38;;
51995;SDS011;38010;53.264;6.592;2022-12-11T02:51:12;2.78;;;1.90;;
51995;SDS011;38010;53.264;6.592;2022-12-11T02:53:40;3.55;;;2.15;;
51995;SDS011;38010;53.264;6.592;2022-12-11T02:56:18;3.65;;;2.30;;
51995;SDS011;38010;53.264;6.592;2022-12-11T02:58:49;2.97;;;2.22;;
51995;SDS011;38010;53.264;6.592;2022-12-11T03:01:19;2.92;;;2.00;;
51995;SDS011;38010;53.264;6.592;2022-12-11T03:03:45;3.22;;;1.95;;
51995;SDS011;38010;53.264;6.592;2022-12-11T03:06:12;2.85;;;2.30;;
51995;SDS011;38010;53.264;6.592;2022-12-11T03:08:42;2.92;;;2.03;;
51995;SDS011;38010;53.264;6.592;2022-12-11T03:11:09;3.95;;;2.47;;
51995;SDS011;38010;53.264;6.592;2022-12-11T03:13:36;3.33;;;2.17;;
51995;SDS011;38010;53.264;6.592;2022-12-11T03:18:53;3.38;;;2.42;;
51995;SDS011;38010;53.264;6.592;2022-12-11T03:21:33;3.17;;;2.28;;
51995;SDS011;38010;53.264;6.592;2022-12-11T03:24:20;3.22;;;2.05;;
51995;SDS011;38010;53.264;6.592;2022-12-11T03:27:18;3.40;;;2.25;;
51995;SDS011;38010;53.264;6.592;2022-12-11T03:30:04;3.50;;;2.30;;
51995;SDS011;38010;53.264;6.592;2022-12-11T03:32:35;3.67;;;2.50;;
51995;SDS011;38010;53.264;6.592;2022-12-11T03:35:24;3.42;;;2.40;;
51995;SDS011;38010;53.264;6.592;2022-12-11T03:38:10;3.58;;;2.35;;
51995;SDS011;38010;53.264;6.592;2022-12-11T03:40:40;3.78;;;2.38;;
51995;SDS011;38010;53.264;6.592;2022-12-11T03:43:08;3.60;;;2.42;;
51995;SDS011;38010;53.264;6.592;2022-12-11T03:45:36;3.60;;;2.40;;
51995;SDS011;38010;53.264;6.592;2022-12-11T03:48:04;4.05;;;2.50;;
51995;SDS011;38010;53.264;6.592;2022-12-11T03:50:32;3.15;;;2.22;;
51995;SDS011;38010;53.264;6.592;2022-12-11T03:52:59;3.30;;;2.15;;
51995;SDS011;38010;53.264;6.592;2022-12-11T03:55:26;3.42;;;2.05;;
51995;SDS011;38010;53.264;6.592;2022-12-11T03:57:53;3.63;;;2.40;;
51995;SDS011;38010;53.264;6.592;2022-12-11T04:00:19;2.70;;;1.98;;
51995;SDS011;38010;53.264;6.592;2022-12-11T04:02:46;3.85;;;2.47;;
51995;SDS011;38010;53.264;6.592;2022-12-11T04:05:30;3.42;;;2.42;;
51995;SDS011;38010;53.264;6.592;2022-12-11T04:07:56;3.05;;;2.25;;
51995;SDS011;38010;53.264;6.592;2022-12-11T04:10:22;3.75;;;2.20;;
51995;SDS011;38010;53.264;6.592;2022-12-11T04:12:48;3.33;;;2.45;;
51995;SDS011;38010;53.264;6.592;2022-12-11T04:15:13;3.88;;;2.85;;
51995;SDS011;38010;53.264;6.592;2022-12-11T04:17:39;3.20;;;2.30;;
51995;SDS011;38010;53.264;6.592;2022-12-11T04:20:23;2.88;;;1.77;;
51995;SDS011;38010;53.264;6.592;2022-12-11T04:23:10;4.25;;;2.40;;
51995;SDS011;38010;53.264;6.592;2022-12-11T04:26:32;2.67;;;2.00;;
51995;SDS011;38010;53.264;6.592;2022-12-11T04:28:51;3.15;;;2.20;;
51995;SDS011;38010;53.264;6.592;2022-12-11T04:31:18;2.97;;;2.42;;
51995;SDS011;38010;53.264;6.592;2022-12-11T04:33:45;3.63;;;2.35;;
51995;SDS011;38010;53.264;6.592;2022-12-11T04:36:11;3.72;;;2.40;;
51995;SDS011;38010;53.264;6.592;2022-12-11T04:38:37;2.88;;;2.05;;
51995;SDS011;38010;53.264;6.592;2022-12-11T04:41:04;3.55;;;2.40;;
51995;SDS011;38010;53.264;6.592;2022-12-11T04:43:34;3.33;;;2.40;;
51995;SDS011;38010;53.264;6.592;2022-12-11T04:46:01;4.10;;;2.70;;
51995;SDS011;38010;53.264;6.592;2022-12-11T04:48:27;3.13;;;2.00;;
51995;SDS011;38010;53.264;6.592;2022-12-11T04:50:53;3.78;;;2.33;;
51995;SDS011;38010;53.264;6.592;2022-12-11T04:53:18;2.53;;;2.00;;
51995;SDS011;38010;53.264;6.592;2022-12-11T04:55:44;2.95;;;2.20;;
51995;SDS011;38010;53.264;6.592;2022-12-11T04:58:09;2.53;;;2.05;;
51995;SDS011;38010;53.264;6.592;2022-12-11T05:00:35;2.78;;;2.05;;
51995;SDS011;38010;53.264;6.592;2022-12-11T05:03:01;3.10;;;1.85;;
51995;SDS011;38010;53.264;6.592;2022-12-11T05:05:26;3.83;;;2.35;;
51995;SDS011;38010;53.264;6.592;2022-12-11T05:07:52;2.38;;;1.88;;
51995;SDS011;38010;53.264;6.592;2022-12-11T05:10:18;2.45;;;2.05;;
51995;SDS011;38010;53.264;6.592;2022-12-11T05:12:43;3.50;;;2.35;;
51995;SDS011;38010;53.264;6.592;2022-12-11T05:15:09;3.83;;;2.20;;
51995;SDS011;38010;53.264;6.592;2022-12-11T05:17:35;3.60;;;2.30;;
51995;SDS011;38010;53.264;6.592;2022-12-11T05:20:00;3.22;;;2.30;;
51995;SDS011;38010;53.264;6.592;2022-12-11T05:22:26;3.50;;;2.20;;
51995;SDS011;38010;53.264;6.592;2022-12-11T05:24:54;3.10;;;1.95;;
51995;SDS011;38010;53.264;6.592;2022-12-11T05:27:19;3.83;;;2.35;;
51995;SDS011;38010;53.264;6.592;2022-12-11T05:29:45;3.83;;;2.47;;
51995;SDS011;38010;53.264;6.592;2022-12-11T05:32:11;3.78;;;2.08;;
51995;SDS011;38010;53.264;6.592;2022-12-11T05:34:36;2.92;;;2.00;;
51995;SDS011;38010;53.264;6.592;2022-12-11T05:37:02;2.97;;;2.10;;
51995;SDS011;38010;53.264;6.592;2022-12-11T05:39:28;3.85;;;2.30;;
51995;SDS011;38010;53.264;6.592;2022-12-11T05:41:53;3.08;;;1.98;;
51995;SDS011;38010;53.264;6.592;2022-12-11T05:44:19;3.65;;;2.50;;
51995;SDS011;38010;53.264;6.592;2022-12-11T05:46:45;3.33;;;2.22;;
51995;SDS011;38010;53.264;6.592;2022-12-11T05:49:11;2.83;;;2.00;;
51995;SDS011;38010;53.264;6.592;2022-12-11T05:51:36;4.03;;;2.25;;
51995;SDS011;38010;53.264;6.592;2022-12-11T05:54:03;2.13;;;1.70;;
51995;SDS011;38010;53.264;6.592;2022-12-11T05:56:31;2.50;;;1.92;;
51995;SDS011;38010;53.264;6.592;2022-12-11T05:58:58;3.75;;;2.42;;
51995;SDS011;38010;53.264;6.592;2022-12-11T06:01:27;3.40;;;2.33;;
51995;SDS011;38010;53.264;6.592;2022-12-11T06:03:55;2.85;;;1.92;;
51995;SDS011;38010;53.264;6.592;2022-12-11T06:06:22;2.85;;;2.00;;
51995;SDS011;38010;53.264;6.592;2022-12-11T06:08:51;2.25;;;1.80;;
51995;SDS011;38010;53.264;6.592;2022-12-11T06:11:18;2.95;;;2.10;;
51995;SDS011;38010;53.264;6.592;2022-12-11T06:13:44;3.03;;;2.10;;
51995;SDS011;38010;53.264;6.592;2022-12-11T06:16:10;3.75;;;2.40;;
51995;SDS011;38010;53.264;6.592;2022-12-11T06:18:36;3.38;;;2.05;;
51995;SDS011;38010;53.264;6.592;2022-12-11T06:21:13;3.25;;;2.00;;
51995;SDS011;38010;53.264;6.592;2022-12-11T06:23:53;2.67;;;2.00;;
51995;SDS011;38010;53.264;6.592;2022-12-11T06:26:21;3.13;;;2.10;;
51995;SDS011;38010;53.264;6.592;2022-12-11T06:28:47;3.63;;;2.40;;
51995;SDS011;38010;53.264;6.592;2022-12-11T06:31:13;2.83;;;1.80;;
51995;SDS011;38010;53.264;6.592;2022-12-11T06:33:39;2.78;;;1.98;;
51995;SDS011;38010;53.264;6.592;2022-12-11T06:36:15;4.05;;;2.13;;
51995;SDS011;38010;53.264;6.592;2022-12-11T06:38:42;3.03;;;2.08;;
51995;SDS011;38010;53.264;6.592;2022-12-11T06:41:08;2.60;;;1.75;;
51995;SDS011;38010;53.264;6.592;2022-12-11T06:43:35;3.75;;;2.20;;
51995;SDS011;38010;53.264;6.592;2022-12-11T06:46:10;3.35;;;2.17;;
51995;SDS011;38010;53.264;6.592;2022-12-11T06:48:38;3.05;;;2.10;;
51995;SDS011;38010;53.264;6.592;2022-12-11T06:51:08;3.25;;;2.15;;
51995;SDS011;38010;53.264;6.592;2022-12-11T06:53:35;3.15;;;2.15;;
51995;SDS011;38010;53.264;6.592;2022-12-11T06:56:02;4.10;;;2.55;;
51995;SDS011;38010;53.264;6.592;2022-12-11T06:58:46;3.00;;;1.92;;
51995;SDS011;38010;53.264;6.592;2022-12-11T07:01:15;3.65;;;2.22;;
51995;SDS011;38010;53.264;6.592;2022-12-11T07:03:43;3.78;;;2.15;;
51995;SDS011;38010;53.264;6.592;2022-12-11T07:06:09;3.45;;;2.00;;
51995;SDS011;38010;53.264;6.592;2022-12-11T07:08:35;3.53;;;2.17;;
51995;SDS011;38010;53.264;6.592;2022-12-11T07:11:02;2.95;;;1.95;;
51995;SDS011;38010;53.264;6.592;2022-12-11T07:13:35;2.78;;;1.95;;
51995;SDS011;38010;53.264;6.592;2022-12-11T07:16:01;3.15;;;2.10;;
51995;SDS011;38010;53.264;6.592;2022-12-11T07:18:29;3.83;;;2.30;;
51995;SDS011;38010;53.264;6.592;2022-12-11T07:20:58;3.58;;;2.13;;
51995;SDS011;38010;53.264;6.592;2022-12-11T07:23:27;4.30;;;2.22;;
51995;SDS011;38010;53.264;6.592;2022-12-11T07:25:54;3.42;;;2.10;;
51995;SDS011;38010;53.264;6.592;2022-12-11T07:28:20;3.53;;;1.98;;
51995;SDS011;38010;53.264;6.592;2022-12-11T07:30:45;3.03;;;1.98;;
51995;SDS011;38010;53.264;6.592;2022-12-11T07:33:11;3.65;;;2.10;;
51995;SDS011;38010;53.264;6.592;2022-12-11T07:35:37;3.13;;;2.40;;
51995;SDS011;38010;53.264;6.592;2022-12-11T07:38:03;2.90;;;1.90;;
51995;SDS011;38010;53.264;6.592;2022-12-11T07:40:28;2.83;;;1.88;;
51995;SDS011;38010;53.264;6.592;2022-12-11T07:42:54;3.25;;;1.98;;
51995;SDS011;38010;53.264;6.592;2022-12-11T07:45:20;3.50;;;2.20;;
51995;SDS011;38010;53.264;6.592;2022-12-11T07:47:46;3.63;;;2.03;;
51995;SDS011;38010;53.264;6.592;2022-12-11T07:50:11;2.83;;;2.00;;
51995;SDS011;38010;53.264;6.592;2022-12-11T07:52:37;3.70;;;2.38;;
51995;SDS011;38010;53.264;6.592;2022-12-11T07:55:03;3.15;;;2.20;;
51995;SDS011;38010;53.264;6.592;2022-12-11T07:57:29;3.70;;;2.22;;
51995;SDS011;38010;53.264;6.592;2022-12-11T07:59:55;2.72;;;1.83;;
51995;SDS011;38010;53.264;6.592;2022-12-11T08:02:20;2.90;;;2.15;;
51995;SDS011;38010;53.264;6.592;2022-12-11T08:04:46;3.35;;;1.80;;
51995;SDS011;38010;53.264;6.592;2022-12-11T08:07:12;2.92;;;1.85;;
51995;SDS011;38010;53.264;6.592;2022-12-11T08:09:38;2.60;;;1.85;;
51995;SDS011;38010;53.264;6.592;2022-12-11T08:12:04;2.80;;;2.00;;
51995;SDS011;38010;53.264;6.592;2022-12-11T08:14:29;3.08;;;2.05;;
51995;SDS011;38010;53.264;6.592;2022-12-11T08:16:55;3.00;;;2.13;;
51995;SDS011;38010;53.264;6.592;2022-12-11T08:19:22;2.58;;;1.98;;
51995;SDS011;38010;53.264;6.592;2022-12-11T08:21:47;2.63;;;1.77;;
51995;SDS011;38010;53.264;6.592;2022-12-11T08:24:13;3.00;;;2.05;;
51995;SDS011;38010;53.264;6.592;2022-12-11T08:26:44;3.95;;;2.30;;
51995;SDS011;38010;53.264;6.592;2022-12-11T08:29:10;2.92;;;1.90;;
51995;SDS011;38010;53.264;6.592;2022-12-11T08:31:37;3.45;;;1.90;;
51995;SDS011;38010;53.264;6.592;2022-12-11T08:34:04;3.65;;;1.90;;
51995;SDS011;38010;53.264;6.592;2022-12-11T08:36:30;3.05;;;1.88;;
51995;SDS011;38010;53.264;6.592;2022-12-11T08:38:56;2.75;;;1.80;;
51995;SDS011;38010;53.264;6.592;2022-12-11T08:41:26;1.95;;;1.60;;
51995;SDS011;38010;53.264;6.592;2022-12-11T08:43:54;2.80;;;2.03;;
51995;SDS011;38010;53.264;6.592;2022-12-11T08:46:22;2.80;;;1.92;;
51995;SDS011;38010;53.264;6.592;2022-12-11T08:48:49;3.38;;;2.10;;
51995;SDS011;38010;53.264;6.592;2022-12-11T08:51:16;3.50;;;2.15;;
51995;SDS011;38010;53.264;6.592;2022-12-11T08:53:44;3.00;;;1.80;;
51995;SDS011;38010;53.264;6.592;2022-12-11T08:56:11;3.15;;;2.00;;
51995;SDS011;38010;53.264;6.592;2022-12-11T08:58:39;2.63;;;1.73;;
51995;SDS011;38010;53.264;6.592;2022-12-11T09:01:06;2.53;;;2.03;;
51995;SDS011;38010;53.264;6.592;2022-12-11T09:03:33;2.83;;;1.83;;
51995;SDS011;38010;53.264;6.592;2022-12-11T09:06:02;3.28;;;2.08;;
51995;SDS011;38010;53.264;6.592;2022-12-11T09:08:29;3.25;;;2.15;;
51995;SDS011;38010;53.264;6.592;2022-12-11T09:10:55;3.13;;;2.22;;
51995;SDS011;38010;53.264;6.592;2022-12-11T09:13:20;2.25;;;1.55;;
51995;SDS011;38010;53.264;6.592;2022-12-11T09:15:46;3.45;;;1.83;;
51995;SDS011;38010;53.264;6.592;2022-12-11T09:18:12;3.15;;;1.90;;
51995;SDS011;38010;53.264;6.592;2022-12-11T09:20:37;3.60;;;2.35;;
51995;SDS011;38010;53.264;6.592;2022-12-11T09:23:03;3.47;;;1.75;;
51995;SDS011;38010;53.264;6.592;2022-12-11T09:25:29;2.47;;;1.70;;
51995;SDS011;38010;53.264;6.592;2022-12-11T09:27:54;3.63;;;2.30;;
51995;SDS011;38010;53.264;6.592;2022-12-11T09:30:20;3.10;;;1.90;;
51995;SDS011;38010;53.264;6.592;2022-12-11T09:32:46;3.30;;;2.00;;
51995;SDS011;38010;53.264;6.592;2022-12-11T09:35:11;3.15;;;2.20;;
51995;SDS011;38010;53.264;6.592;2022-12-11T09:37:37;3.47;;;2.03;;
51995;SDS011;38010;53.264;6.592;2022-12-11T09:40:03;2.72;;;2.00;;
51995;SDS011;38010;53.264;6.592;2022-12-11T09:42:42;2.38;;;1.80;;
51995;SDS011;38010;53.264;6.592;2022-12-11T09:45:16;3.03;;;2.22;;
51995;SDS011;38010;53.264;6.592;2022-12-11T09:47:43;3.55;;;2.20;;
51995;SDS011;38010;53.264;6.592;2022-12-11T09:50:34;2.80;;;1.92;;
51995;SDS011;38010;53.264;6.592;2022-12-11T09:53:20;3.83;;;2.22;;
51995;SDS011;38010;53.264;6.592;2022-12-11T10:01:20;3.45;;;1.90;;
51995;SDS011;38010;53.264;6.592;2022-12-11T10:11:52;3.85;;;2.47;;
51995;SDS011;38010;53.264;6.592;2022-12-11T10:17:21;3.10;;;2.22;;
51995;SDS011;38010;53.264;6.592;2022-12-11T10:19:52;3.03;;;2.30;;
51995;SDS011;38010;53.264;6.592;2022-12-11T10:22:22;4.00;;;2.40;;
51995;SDS011;38010;53.264;6.592;2022-12-11T10:24:55;2.92;;;2.25;;
51995;SDS011;38010;53.264;6.592;2022-12-11T10:27:31;4.43;;;2.53;;
51995;SDS011;38010;53.264;6.592;2022-12-11T10:33:01;3.80;;;2.30;;
51995;SDS011;38010;53.264;6.592;2022-12-11T10:35:52;2.92;;;1.92;;
51995;SDS011;38010;53.264;6.592;2022-12-11T10:38:32;3.42;;;2.20;;
51995;SDS011;38010;53.264;6.592;2022-12-11T10:41:18;2.45;;;2.03;;
51995;SDS011;38010;53.264;6.592;2022-12-11T10:43:49;3.17;;;2.10;;
51995;SDS011;38010;53.264;6.592;2022-12-11T10:46:21;3.17;;;2.17;;
51995;SDS011;38010;53.264;6.592;2022-12-11T10:48:49;3.92;;;2.63;;
51995;SDS011;38010;53.264;6.592;2022-12-11T10:54:00;4.03;;;2.13;;
51995;SDS011;38010;53.264;6.592;2022-12-11T10:56:53;4.13;;;2.67;;
51995;SDS011;38010;53.264;6.592;2022-12-11T11:00:03;4.22;;;2.50;;
51995;SDS011;38010;53.264;6.592;2022-12-11T11:05:16;3.58;;;2.35;;
51995;SDS011;38010;53.264;6.592;2022-12-11T11:08:18;2.83;;;2.03;;
51995;SDS011;38010;53.264;6.592;2022-12-11T11:10:57;4.20;;;2.45;;
51995;SDS011;38010;53.264;6.592;2022-12-11T11:13:31;4.10;;;2.50;;
51995;SDS011;38010;53.264;6.592;2022-12-11T11:15:57;3.92;;;2.45;;
51995;SDS011;38010;53.264;6.592;2022-12-11T11:18:25;3.90;;;2.53;;
51995;SDS011;38010;53.264;6.592;2022-12-11T11:20:53;3.38;;;2.10;;
51995;SDS011;38010;53.264;6.592;2022-12-11T11:23:20;4.07;;;2.30;;
51995;SDS011;38010;53.264;6.592;2022-12-11T11:25:53;3.08;;;2.20;;
51995;SDS011;38010;53.264;6.592;2022-12-11T11:28:30;3.92;;;2.35;;
51995;SDS011;38010;53.264;6.592;2022-12-11T11:31:04;3.53;;;2.15;;
51995;SDS011;38010;53.264;6.592;2022-12-11T11:33:33;3.25;;;2.05;;
51995;SDS011;38010;53.264;6.592;2022-12-11T11:36:01;3.22;;;2.38;;
51995;SDS011;38010;53.264;6.592;2022-12-11T11:41:52;3.67;;;2.50;;
51995;SDS011;38010;53.264;6.592;2022-12-11T11:44:23;2.88;;;2.03;;
51995;SDS011;38010;53.264;6.592;2022-12-11T11:47:14;3.13;;;2.17;;
51995;SDS011;38010;53.264;6.592;2022-12-11T11:49:52;2.80;;;2.13;;
51995;SDS011;38010;53.264;6.592;2022-12-11T11:52:21;3.10;;;2.00;;
51995;SDS011;38010;53.264;6.592;2022-12-11T11:55:06;3.00;;;1.90;;
51995;SDS011;38010;53.264;6.592;2022-12-11T11:57:39;3.33;;;2.00;;
51995;SDS011;38010;53.264;6.592;2022-12-11T12:00:17;2.38;;;2.00;;
51995;SDS011;38010;53.264;6.592;2022-12-11T12:02:52;3.15;;;2.22;;
51995;SDS011;38010;53.264;6.592;2022-12-11T12:16:48;4.00;;;2.65;;
51995;SDS011;38010;53.264;6.592;2022-12-11T12:19:27;3.65;;;2.28;;
51995;SDS011;38010;53.264;6.592;2022-12-11T12:21:59;3.65;;;2.53;;
51995;SDS011;38010;53.264;6.592;2022-12-11T12:24:46;3.72;;;2.95;;
51995;SDS011;38010;53.264;6.592;2022-12-11T12:27:27;4.00;;;2.40;;
51995;SDS011;38010;53.264;6.592;2022-12-11T12:30:03;2.92;;;2.33;;
51995;SDS011;38010;53.264;6.592;2022-12-11T12:35:31;3.50;;;2.53;;
51995;SDS011;38010;53.264;6.592;2022-12-11T12:46:24;3.60;;;2.45;;
51995;SDS011;38010;53.264;6.592;2022-12-11T12:49:02;4.50;;;2.40;;
51995;SDS011;38010;53.264;6.592;2022-12-11T12:51:28;4.13;;;2.55;;
51995;SDS011;38010;53.264;6.592;2022-12-11T12:53:56;4.85;;;2.67;;
51995;SDS011;38010;53.264;6.592;2022-12-11T12:56:26;4.68;;;2.50;;
51995;SDS011;38010;53.264;6.592;2022-12-11T12:58:54;3.92;;;2.58;;
51995;SDS011;38010;53.264;6.592;2022-12-11T13:01:21;4.70;;;2.92;;
51995;SDS011;38010;53.264;6.592;2022-12-11T13:03:55;3.92;;;2.50;;
51995;SDS011;38010;53.264;6.592;2022-12-11T13:06:27;4.77;;;2.33;;
51995;SDS011;38010;53.264;6.592;2022-12-11T13:09:35;5.13;;;3.25;;
51995;SDS011;38010;53.264;6.592;2022-12-11T13:11:54;3.55;;;2.55;;
51995;SDS011;38010;53.264;6.592;2022-12-11T13:14:24;4.30;;;2.80;;
51995;SDS011;38010;53.264;6.592;2022-12-11T13:17:19;4.63;;;2.50;;
51995;SDS011;38010;53.264;6.592;2022-12-11T13:19:48;3.72;;;2.75;;
51995;SDS011;38010;53.264;6.592;2022-12-11T13:22:21;3.80;;;2.78;;
51995;SDS011;38010;53.264;6.592;2022-12-11T13:24:58;5.38;;;3.47;;
51995;SDS011;38010;53.264;6.592;2022-12-11T13:30:04;4.57;;;3.00;;
51995;SDS011;38010;53.264;6.592;2022-12-11T13:32:39;4.18;;;2.70;;
51995;SDS011;38010;53.264;6.592;2022-12-11T13:35:13;4.85;;;2.97;;
51995;SDS011;38010;53.264;6.592;2022-12-11T13:37:44;3.60;;;2.60;;
51995;SDS011;38010;53.264;6.592;2022-12-11T13:40:23;4.82;;;2.97;;
51995;SDS011;38010;53.264;6.592;2022-12-11T13:42:53;4.00;;;3.03;;
51995;SDS011;38010;53.264;6.592;2022-12-11T13:45:22;3.92;;;2.38;;
51995;SDS011;38010;53.264;6.592;2022-12-11T13:48:03;2.83;;;2.28;;
51995;SDS011;38010;53.264;6.592;2022-12-11T13:50:44;4.47;;;2.35;;
51995;SDS011;38010;53.264;6.592;2022-12-11T13:53:14;4.45;;;2.85;;
51995;SDS011;38010;53.264;6.592;2022-12-11T13:55:42;3.80;;;2.80;;
51995;SDS011;38010;53.264;6.592;2022-12-11T13:58:14;3.85;;;2.50;;
51995;SDS011;38010;53.264;6.592;2022-12-11T14:03:32;3.58;;;2.53;;
51995;SDS011;38010;53.264;6.592;2022-12-11T14:05:59;3.33;;;2.55;;
51995;SDS011;38010;53.264;6.592;2022-12-11T14:08:33;3.85;;;2.65;;
51995;SDS011;38010;53.264;6.592;2022-12-11T14:11:01;4.68;;;2.80;;
51995;SDS011;38010;53.264;6.592;2022-12-11T14:13:30;4.47;;;2.60;;
51995;SDS011;38010;53.264;6.592;2022-12-11T14:16:02;4.78;;;2.90;;
51995;SDS011;38010;53.264;6.592;2022-12-11T14:18:30;3.40;;;2.58;;
51995;SDS011;38010;53.264;6.592;2022-12-11T14:20:58;4.20;;;2.30;;
51995;SDS011;38010;53.264;6.592;2022-12-11T14:23:30;4.60;;;2.97;;
51995;SDS011;38010;53.264;6.592;2022-12-11T14:25:58;4.55;;;3.03;;
51995;SDS011;38010;53.264;6.592;2022-12-11T14:28:34;3.58;;;2.60;;
51995;SDS011;38010;53.264;6.592;2022-12-11T14:31:01;3.70;;;2.53;;
51995;SDS011;38010;53.264;6.592;2022-12-11T14:33:34;4.72;;;2.75;;
51995;SDS011;38010;53.264;6.592;2022-12-11T14:36:08;5.35;;;3.00;;
51995;SDS011;38010;53.264;6.592;2022-12-11T14:38:38;3.47;;;2.35;;
51995;SDS011;38010;53.264;6.592;2022-12-11T14:44:03;3.95;;;2.63;;
51995;SDS011;38010;53.264;6.592;2022-12-11T14:49:17;4.00;;;3.20;;
51995;SDS011;38010;53.264;6.592;2022-12-11T14:51:49;3.90;;;2.70;;
51995;SDS011;38010;53.264;6.592;2022-12-11T14:54:32;5.03;;;2.63;;
51995;SDS011;38010;53.264;6.592;2022-12-11T14:59:31;3.03;;;2.45;;
51995;SDS011;38010;53.264;6.592;2022-12-11T15:02:20;4.35;;;2.60;;
51995;SDS011;38010;53.264;6.592;2022-12-11T15:04:56;4.07;;;2.63;;
51995;SDS011;38010;53.264;6.592;2022-12-11T15:07:29;6.18;;;3.88;;
51995;SDS011;38010;53.264;6.592;2022-12-11T15:09:56;6.20;;;3.13;;
51995;SDS011;38010;53.264;6.592;2022-12-11T15:12:21;5.57;;;3.20;;
51995;SDS011;38010;53.264;6.592;2022-12-11T15:17:15;4.95;;;3.08;;
51995;SDS011;38010;53.264;6.592;2022-12-11T15:19:45;6.65;;;3.63;;
51995;SDS011;38010;53.264;6.592;2022-12-11T15:22:15;3.95;;;3.10;;
51995;SDS011;38010;53.264;6.592;2022-12-11T15:24:42;4.50;;;3.55;;
51995;SDS011;38010;53.264;6.592;2022-12-11T15:29:54;5.65;;;3.10;;
51995;SDS011;38010;53.264;6.592;2022-12-11T15:32:21;4.65;;;3.15;;
51995;SDS011;38010;53.264;6.592;2022-12-11T15:37:25;4.38;;;2.85;;
51995;SDS011;38010;53.264;6.592;2022-12-11T15:39:55;4.45;;;3.47;;
51995;SDS011;38010;53.264;6.592;2022-12-11T15:42:41;4.90;;;3.35;;
51995;SDS011;38010;53.264;6.592;2022-12-11T15:45:08;5.43;;;3.53;;
51995;SDS011;38010;53.264;6.592;2022-12-11T15:50:19;5.28;;;3.72;;
51995;SDS011;38010;53.264;6.592;2022-12-11T15:52:47;5.20;;;3.70;;
51995;SDS011;38010;53.264;6.592;2022-12-11T15:55:14;4.82;;;3.50;;
51995;SDS011;38010;53.264;6.592;2022-12-11T15:57:51;4.28;;;3.42;;
51995;SDS011;38010;53.264;6.592;2022-12-11T16:00:19;4.95;;;3.47;;
51995;SDS011;38010;53.264;6.592;2022-12-11T16:02:48;4.97;;;3.42;;
51995;SDS011;38010;53.264;6.592;2022-12-11T16:05:14;4.93;;;3.47;;
51995;SDS011;38010;53.264;6.592;2022-12-11T16:07:40;4.10;;;3.53;;
51995;SDS011;38010;53.264;6.592;2022-12-11T16:10:07;4.28;;;3.28;;
51995;SDS011;38010;53.264;6.592;2022-12-11T16:12:38;5.63;;;4.20;;
51995;SDS011;38010;53.264;6.592;2022-12-11T16:15:04;4.70;;;3.38;;
51995;SDS011;38010;53.264;6.592;2022-12-11T16:17:31;5.85;;;3.83;;
51995;SDS011;38010;53.264;6.592;2022-12-11T16:19:57;5.22;;;3.45;;
51995;SDS011;38010;53.264;6.592;2022-12-11T16:22:22;4.43;;;3.30;;
51995;SDS011;38010;53.264;6.592;2022-12-11T16:24:52;5.70;;;3.95;;
51995;SDS011;38010;53.264;6.592;2022-12-11T16:27:21;5.77;;;3.93;;
51995;SDS011;38010;53.264;6.592;2022-12-11T16:29:47;4.72;;;3.30;;
51995;SDS011;38010;53.264;6.592;2022-12-11T16:32:12;6.13;;;3.58;;
51995;SDS011;38010;53.264;6.592;2022-12-11T16:34:38;5.43;;;3.25;;